createdAt,value
2018-09-22T00:04:20.631Z,245.93
2018-09-22T00:14:20.781Z,243.42
2018-09-22T00:24:20.781Z,256.82
2018-09-22T00:34:20.738Z,245.17
2018-09-22T00:44:20.623Z,264.64
2018-09-22T00:54:20.717Z,254.56
2018-09-22T01:04:20.662Z,252.66
2018-09-22T01:14:20.664Z,253.45
2018-09-22T01:24:20.639Z,270.11
2018-09-22T01:34:20.688Z,262.68
2018-09-22T01:44:20.548Z,267.61
2018-09-22T01:54:21.208Z,253.01
2018-09-22T02:04:20.649Z,256.29
2018-09-22T02:14:20.608Z,258.16
2018-09-22T02:24:21.330Z,255.89
2018-09-22T02:34:20.607Z,243.33
2018-09-22T02:44:20.609Z,247.80
2018-09-22T02:54:20.676Z,246.00
2018-09-22T03:04:20.651Z,251.08
2018-09-22T03:14:20.648Z,231.07
2018-09-22T03:24:20.545Z,256.83
2018-09-22T03:34:20.888Z,259.38
2018-09-22T03:44:20.727Z,229.48
2018-09-22T03:54:20.639Z,241.43
2018-09-22T04:04:20.627Z,253.35
2018-09-22T04:14:20.627Z,247.65
2018-09-22T04:24:21.505Z,254.06
2018-09-22T04:34:20.781Z,264.41
2018-09-22T04:44:20.597Z,259.24
2018-09-22T04:54:20.636Z,254.51
2018-09-22T05:04:20.615Z,250.64
2018-09-22T05:14:20.819Z,247.59
2018-09-22T05:24:20.658Z,252.42
2018-09-22T05:34:20.607Z,252.18
2018-09-22T05:44:20.578Z,244.90
2018-09-22T05:54:22.895Z,252.34
2018-09-22T06:04:20.623Z,254.35
2018-09-22T06:14:20.648Z,241.19
2018-09-22T06:24:20.563Z,253.71
2018-09-22T06:34:20.741Z,249.87
2018-09-22T06:44:20.540Z,252.33
2018-09-22T06:54:20.604Z,250.43
2018-09-22T07:04:20.596Z,248.15
2018-09-22T07:14:20.487Z,253.77
2018-09-22T07:24:20.635Z,250.59
2018-09-22T07:34:20.627Z,250.29
2018-09-22T07:44:20.568Z,235.41
2018-09-22T07:54:20.627Z,249.80
2018-09-22T08:04:21.538Z,249.24
2018-09-22T08:14:20.554Z,252.65
2018-09-22T08:24:20.643Z,246.46
2018-09-22T08:34:20.650Z,253.04
2018-09-22T08:44:20.504Z,253.25
2018-09-22T08:54:20.621Z,257.37
2018-09-22T09:04:20.535Z,255.50
2018-09-22T09:14:20.623Z,252.40
2018-09-22T09:24:20.632Z,256.23
2018-09-22T09:34:20.575Z,250.86
2018-09-22T09:44:20.718Z,256.86
2018-09-22T09:54:20.632Z,250.38
2018-09-22T10:04:20.652Z,245.59
2018-09-22T10:14:20.634Z,246.33
2018-09-22T10:24:20.650Z,242.15
2018-09-22T10:34:20.658Z,251.33
2018-09-22T10:44:20.763Z,260.71
2018-09-22T10:54:20.642Z,256.04
2018-09-22T11:04:20.650Z,250.98
2018-09-22T11:14:20.718Z,244.39
2018-09-22T11:24:20.653Z,252.43
2018-09-22T11:34:20.671Z,244.38
2018-09-22T11:44:20.668Z,226.73
2018-09-22T11:54:20.617Z,247.59
2018-09-22T12:04:20.499Z,243.87
2018-09-22T12:14:20.620Z,256.80
2018-09-22T12:24:20.608Z,253.58
2018-09-22T12:34:21.362Z,245.54
2018-09-22T12:44:20.597Z,248.10
2018-09-22T12:54:20.635Z,259.00
2018-09-22T13:04:20.586Z,239.01
2018-09-22T13:14:20.881Z,162.03
2018-09-22T13:24:20.647Z,275.04
2018-09-22T13:34:20.653Z,216.57
2018-09-22T13:44:20.672Z,295.85
2018-09-22T13:54:20.605Z,259.33
2018-09-22T14:04:20.599Z,255.12
2018-09-22T14:14:20.626Z,256.11
2018-09-22T14:24:20.821Z,250.65
2018-09-22T14:34:20.626Z,234.39
2018-09-22T14:44:20.744Z,250.56
2018-09-22T14:54:20.607Z,258.90
2018-09-22T15:04:20.664Z,249.73
2018-09-22T15:14:20.650Z,227.37
2018-09-22T15:24:20.584Z,248.70
2018-09-22T15:34:20.638Z,252.09
2018-09-22T15:44:20.664Z,249.95
2018-09-22T15:54:20.713Z,253.24
2018-09-22T16:04:20.564Z,232.75
2018-09-22T16:14:21.688Z,245.91
2018-09-22T16:24:21.242Z,259.02
2018-09-22T16:34:20.623Z,232.85
2018-09-22T16:44:20.642Z,254.15
2018-09-22T16:54:20.635Z,252.60
2018-09-22T17:04:21.777Z,255.23
2018-09-22T17:14:20.579Z,245.56
2018-09-22T17:24:20.590Z,240.41
2018-09-22T17:34:20.631Z,249.02
2018-09-22T17:44:20.591Z,249.24
2018-09-22T17:54:20.581Z,251.62
2018-09-22T18:04:20.663Z,261.77
2018-09-22T18:14:20.619Z,263.50
2018-09-22T18:24:20.649Z,271.87
2018-09-22T18:34:20.639Z,251.70
2018-09-22T18:44:20.601Z,261.63
2018-09-22T18:54:20.560Z,270.00
2018-09-22T19:04:20.745Z,270.90
2018-09-22T19:14:20.585Z,249.77
2018-09-22T19:24:20.672Z,266.96
2018-09-22T19:34:20.626Z,270.00
2018-09-22T19:44:20.629Z,270.00
2018-09-22T19:54:20.587Z,215.23
2018-09-22T20:04:20.850Z,185.46
2018-09-22T20:14:20.592Z,258.10
2018-09-22T20:24:20.641Z,270.00
2018-09-22T20:34:20.779Z,204.64
2018-09-22T20:44:20.704Z,216.20
2018-09-22T20:54:20.703Z,170.77
2018-09-22T21:04:20.652Z,104.50
2018-09-22T21:14:20.734Z,135.00
2018-09-22T21:24:20.663Z,135.00
2018-09-22T21:34:20.588Z,148.03
2018-09-22T21:44:20.607Z,175.71
2018-09-22T21:54:20.561Z,143.08
2018-09-22T22:04:20.672Z,142.47
2018-09-22T22:14:20.654Z,168.15
2018-09-22T22:24:20.592Z,67.10
2018-09-22T22:34:20.641Z,129.03
2018-09-22T22:44:20.671Z,223.56
2018-09-22T22:54:20.656Z,134.44
2018-09-22T23:04:20.564Z,121.50
2018-09-22T23:14:20.558Z,315.00
2018-09-22T23:24:20.664Z,327.97
2018-09-22T23:34:20.672Z,135.00
2018-09-22T23:44:20.614Z,134.51
2018-09-22T23:54:20.585Z,132.72
